Flight Track Log - Related Links

Times and Time Zones

All times are in EST time to prevent confusion due to time zone crossing. See the AAY846 flight status page for this flight to view local times or setup timezone preferences in your user account.

Time Position Orientation Groundspeed Altitude Reporting Facility
EST Latitude Longitude Course Direction KTS MPH feet Rate Location/Type
Mon 08:04:34 AM 27.9333 -82.7000 360° North 151 174 700  Level Tampa TRACON
Mon 08:04:52 AM 27.9333 -82.7000 360° North 162 186 1,200 1,769 Climbing Tampa TRACON
Mon 08:05:52 AM 27.9833 -82.6667 30° Northeast 203 234 3,000 1,950 Climbing Tampa TRACON
Mon 08:06:52 AM 28.0500 -82.6500 12° North 253 291 5,100 2,182 Climbing Tampa TRACON
Mon 08:09:10 AM 28.2125 -82.7231 338° Northwest 286 329 10,200 1,939 Climbing Jacksonville Center
Mon 08:10:10 AM 28.3042 -82.7653 338° Northwest 315 362 11,500 2,000 Climbing Jacksonville Center
Mon 08:11:10 AM 28.4003 -82.8100 338° Northwest 350 403 14,200 2,400 Climbing Jacksonville Center
Mon 08:12:10 AM 28.5025 -82.8547 339° North 376 433 16,300 2,200 Climbing Jacksonville Center
Mon 08:13:10 AM 28.6111 -82.8972 341° North 391 450 18,600 1,700 Climbing Jacksonville Center
Mon 08:14:10 AM 28.7050 -82.9375 339° North 397 457 19,700 1,450 Climbing Jacksonville Center
Mon 08:15:10 AM 28.8178 -82.9825 341° North 404 465 21,500 1,650 Climbing Jacksonville Center
Mon 08:16:10 AM 28.9303 -83.0278 341° North 415 478 23,000 1,700 Climbing Jacksonville Center
Mon 08:17:10 AM 29.0431 -83.0778 339° North 428 493 24,900 1,750 Climbing Jacksonville Center
Mon 08:18:10 AM 29.1472 -83.1422 332° Northwest 428 493 26,500 1,400 Climbing Jacksonville Center
Mon 08:19:10 AM 29.2536 -83.2019 334° Northwest 423 487 27,700 1,350 Climbing Jacksonville Center
Mon 08:20:10 AM 29.3578 -83.2667 332° Northwest 428 493 29,200 1,500 Climbing Jacksonville Center
Mon 08:21:10 AM 29.4619 -83.3244 334° Northwest 428 493 30,700 1,250 Climbing Jacksonville Center
Mon 08:22:10 AM 29.5619 -83.3892 331° Northwest 423 487 31,700 600 Climbing Jacksonville Center
Mon 08:23:10 AM 29.6639 -83.4494 333° Northwest 410 472 31,900 100 Climbing Jacksonville Center
Mon 08:24:10 AM 29.7639 -83.5122 331° Northwest 410 472 31,900 350 Level Jacksonville Center
Mon 08:25:10 AM 29.8764 -83.5753 334° Northwest 410 472 32,600 550 Climbing Jacksonville Center
Mon 08:26:10 AM 29.9742 -83.6408 330° Northwest 410 472 33,000 650 Climbing Jacksonville Center
Mon 08:27:10 AM 30.0781 -83.6967 335° Northwest 410 472 33,900 450 Climbing Jacksonville Center
Mon 08:28:10 AM 30.1781 -83.7625 330° Northwest 410 472 33,900  Level Jacksonville Center
Mon 08:29:10 AM 30.2797 -83.8186 335° Northwest 410 472 33,900  Level Jacksonville Center
Mon 08:30:10 AM 30.3775 -83.8822 331° Northwest 410 472 33,900  Level Jacksonville Center
Mon 08:31:10 AM 30.4772 -83.9364 335° Northwest 404 465 33,900 50 Level Jacksonville Center
Mon 08:32:10 AM 30.5625 -83.9975 328° Northwest 399 459 34,000 50 Climbing Jacksonville Center
Mon 08:33:10 AM 30.6642 -84.0567 333° Northwest 399 459 34,000  Level Jacksonville Center
Mon 08:34:10 AM 30.7617 -84.1183 331° Northwest 399 459 34,000  Level Jacksonville Center
Mon 08:35:10 AM 30.8633 -84.1778 333° Northwest 399 459 34,000  Level Jacksonville Center
Mon 08:37:47 AM 31.1244 -84.3444 331° Northwest 412 474 34,000  Level Atlanta Center
Mon 08:38:47 AM 31.2203 -84.4031 332° Northwest 401 461 34,000  Level Atlanta Center
Mon 08:39:47 AM 31.3200 -84.4642 332° Northwest 401 461 34,000  Level Atlanta Center
Mon 08:40:47 AM 31.4158 -84.5281 330° Northwest 411 473 34,000  Level Atlanta Center
Mon 08:41:47 AM 31.5242 -84.5992 331° Northwest 411 473 34,000  Level Atlanta Center
Mon 08:42:47 AM 31.6072 -84.6533 331° Northwest 411 473 34,000  Level Atlanta Center
Mon 08:43:47 AM 31.7136 -84.7103 336° Northwest 432 497 34,000  Level Atlanta Center
Mon 08:44:47 AM 31.8111 -84.7744 331° Northwest 412 474 34,000  Level Atlanta Center
Mon 08:45:47 AM 31.9175 -84.8194 340° North 401 461 34,000  Level Atlanta Center
Mon 08:46:47 AM 32.0278 -84.8569 344° North 401 461 34,000  Level Atlanta Center
Mon 08:47:47 AM 32.1339 -84.8997 341° North 406 467 34,000  Level Atlanta Center
Mon 08:48:47 AM 32.2486 -84.9353 345° North 406 467 34,000  Level Atlanta Center
Mon 08:49:47 AM 32.3650 -84.9758 344° North 406 467 34,000  Level Atlanta Center
Mon 08:50:47 AM 32.4775 -85.0089 346° North 406 467 34,000  Level Atlanta Center
Mon 08:51:47 AM 32.5900 -85.0497 343° North 411 473 34,000  Level Atlanta Center
Mon 08:52:47 AM 32.7044 -85.0856 345° North 411 473 34,000  Level Atlanta Center
Mon 08:53:47 AM 32.8022 -85.1311 339° North 417 480 34,000  Level Atlanta Center
Mon 08:54:47 AM 32.9250 -85.1600 349° North 422 486 34,000  Level Atlanta Center
Mon 08:55:47 AM 33.0331 -85.2008 342° North 409 471 34,000  Level Atlanta Center
Mon 08:56:47 AM 33.1308 -85.2517 336° Northwest 416 479 34,000  Level Atlanta Center
Mon 08:57:47 AM 33.2472 -85.3031 340° North 410 472 34,000  Level Atlanta Center
Mon 08:58:47 AM 33.3531 -85.3519 339° North 410 472 34,000  Level Atlanta Center
Mon 08:59:47 AM 33.4592 -85.3983 340° North 398 458 34,000  Level Atlanta Center
Mon 09:00:47 AM 33.5628 -85.4475 338° Northwest 398 458 34,000  Level Atlanta Center
Mon 09:01:47 AM 33.6667 -85.4939 340° North 392 451 34,000  Level Atlanta Center
Mon 09:02:47 AM 33.7664 -85.5431 338° Northwest 397 457 34,000  Level Atlanta Center
Mon 09:03:47 AM 33.8722 -85.5925 339° North 392 451 34,000  Level Atlanta Center
Mon 09:04:47 AM 33.9614 -85.6317 340° North 392 451 34,000  Level Atlanta Center
Mon 09:05:47 AM 34.0650 -85.6814 338° Northwest 392 451 34,000  Level Atlanta Center
Mon 09:06:47 AM 34.1772 -85.7311 340° North 392 451 34,000  Level Atlanta Center
Mon 09:07:47 AM 34.2661 -85.7756 338° Northwest 387 445 34,000  Level Atlanta Center
Mon 09:08:47 AM 34.3742 -85.8231 340° North 381 438 34,000  Level Atlanta Center
Mon 09:09:47 AM 34.4694 -85.8731 337° Northwest 374 430 34,000  Level Atlanta Center
Mon 09:10:47 AM 34.5731 -85.9183 340° North 374 430 34,000  Level Atlanta Center
Mon 09:11:47 AM 34.6683 -85.9683 337° Northwest 374 430 34,000  Level Atlanta Center
Mon 09:12:47 AM 34.7719 -86.0111 341° North 379 436 34,000  Level Atlanta Center
Mon 09:13:47 AM 34.8669 -86.0642 335° Northwest 379 436 34,000  Level Atlanta Center
Mon 09:14:47 AM 34.9664 -86.1094 340° North 379 436 34,000  Level Atlanta Center
Mon 09:17:19 AM 35.2089 -86.2253 339° North 381 438 34,000  Level Memphis Center
Mon 09:18:20 AM 35.3036 -86.2772 336° Northwest 371 427 34,000  Level Memphis Center
Mon 09:19:22 AM 35.4039 -86.3214 340° North 377 434 34,000  Level Memphis Center
Mon 09:20:24 AM 35.4992 -86.3728 336° Northwest 373 429 34,000  Level Memphis Center
Mon 09:21:26 AM 35.6136 -86.4244 340° North 372 428 34,000  Level Memphis Center
Mon 09:22:28 AM 35.7072 -86.4736 337° Northwest 365 420 34,000  Level Memphis Center
Mon 09:23:29 AM 35.8058 -86.5189 340° North 372 428 34,000  Level Memphis Center
Mon 09:24:31 AM 35.9000 -86.5697 336° Northwest 368 423 34,000  Level Memphis Center
Mon 09:25:33 AM 35.9975 -86.6139 340° North 370 426 34,000  Level Memphis Center
Mon 09:26:35 AM 36.0906 -86.6647 336° Northwest 364 419 34,000  Level Memphis Center
Mon 09:27:37 AM 36.1847 -86.7117 338° Northwest 364 419 34,000  Level Memphis Center
Mon 09:28:39 AM 36.2722 -86.7672 333° Northwest 354 407 34,000  Level Memphis Center
Mon 09:29:40 AM 36.3786 -86.8208 338° Northwest 366 421 34,000  Level Memphis Center
Mon 09:30:42 AM 36.4642 -86.8792 331° Northwest 360 414 34,000  Level Memphis Center
Mon 09:31:44 AM 36.5550 -86.9297 336° Northwest 359 413 34,000  Level Memphis Center
Mon 09:32:46 AM 36.6433 -86.9864 333° Northwest 354 407 34,000  Level Memphis Center
Mon 09:33:48 AM 36.7367 -87.0369 337° Northwest 359 413 34,000  Level Memphis Center
Mon 09:34:49 AM 36.8372 -87.1028 332° Northwest 350 403 34,000  Level Memphis Center
Mon 09:35:51 AM 36.9297 -87.1528 337° Northwest 355 409 34,000  Level Memphis Center
Mon 09:36:53 AM 37.0175 -87.2114 332° Northwest 355 409 34,000  Level Memphis Center
Mon 09:37:55 AM 37.1100 -87.2617 337° Northwest 357 411 34,000  Level Memphis Center
Mon 09:38:57 AM 37.1953 -87.3194 332° Northwest 350 403 34,000  Level Memphis Center
Mon 09:39:58 AM 37.2886 -87.3692 337° Northwest 358 412 34,000  Level Memphis Center
Mon 09:41:00 AM 37.3747 -87.4278 332° Northwest 352 405 34,000  Level Memphis Center
Mon 09:42:02 AM 37.4692 -87.4794 337° Northwest 360 414 34,000  Level Memphis Center
Mon 09:43:04 AM 37.5569 -87.5383 332° Northwest 357 411 34,000  Level Memphis Center
Mon 09:44:05 AM 37.6678 -87.5997 336° Northwest 367 422 34,000  Level Memphis Center
Mon 09:45:07 AM 37.7564 -87.6603 332° Northwest 362 417 34,000  Level Memphis Center
Mon 09:46:09 AM 37.8497 -87.7128 336° Northwest 362 417 34,000  Level Memphis Center
Mon 09:46:50 AM 37.9139 -87.7567 332° Northwest 362 417 34,000  Level Kansas City Center
Mon 09:47:36 AM 37.9697 -87.7900 335° Northwest 362 417 34,000  Level Indianapolis Center
Mon 09:48:38 AM 38.0669 -87.8414 337° Northwest 372 428 34,000  Level Indianapolis Center
Mon 09:49:40 AM 38.1747 -87.9106 333° Northwest 361 415 34,000  Level Indianapolis Center
Mon 09:50:42 AM 38.2714 -87.9653 336° Northwest 371 427 34,000  Level Indianapolis Center
Mon 09:51:44 AM 38.3642 -88.0264 333° Northwest 371 427 34,000  Level Indianapolis Center
Mon 09:52:46 AM 38.4628 -88.0789 337° Northwest 375 432 34,000  Level Indianapolis Center
Mon 09:53:48 AM 38.5564 -88.1392 333° Northwest 376 433 34,000  Level Indianapolis Center
Mon 09:54:50 AM 38.6536 -88.1911 337° Northwest 377 434 34,000  Level Indianapolis Center
Mon 09:55:52 AM 38.7442 -88.2528 332° Northwest 369 425 34,000  Level Indianapolis Center
Mon 09:56:54 AM 38.8411 -88.3044 337° Northwest 371 427 34,000  Level Indianapolis Center
Mon 09:57:55 AM 38.9314 -88.3661 332° Northwest 369 425 34,000  Level Indianapolis Center
Mon 09:58:57 AM 39.0264 -88.4156 338° Northwest 365 420 34,000 -1,016 Level Indianapolis Center
Mon 09:59:59 AM 39.1328 -88.4883 332° Northwest 360 414 31,900 -2,226 Descending Indianapolis Center
Mon 10:01:01 AM 39.2325 -88.5439 337° Northwest 376 433 29,400 -2,356 Descending Indianapolis Center
Mon 10:02:14 AM 39.3433 -88.6175 333° Northwest 391 450 26,600 -2,222 Descending Kansas City Center
Mon 10:03:16 AM 39.4558 -88.6764 338° Northwest 395 455 24,400 -1,935 Descending Kansas City Center
Mon 10:04:18 AM 39.5417 -88.7408 330° Northwest 362 417 22,600 -1,756 Descending Kansas City Center
Mon 10:05:19 AM 39.6328 -88.7856 339° North 354 407 20,800 -1,756 Descending Kansas City Center
Mon 10:06:21 AM 39.7100 -88.8447 329° Northwest 329 379 19,000 -1,512 Descending Kansas City Center
Mon 10:07:22 AM 39.7883 -88.9019 331° Northwest 324 373 17,700 -1,463 Descending Kansas City Center
Mon 10:08:24 AM 39.8600 -88.9717 323° Northwest 321 369 16,000 -1,548 Descending Kansas City Center
Mon 10:09:26 AM 39.9364 -89.0314 329° Northwest 321 369 14,500 -1,532 Descending Kansas City Center
Mon 10:09:58 AM 39.9767 -89.0731 322° Northwest 313 360 13,600 -1,340 Descending Chicago Center
Mon 10:11:00 AM 40.0494 -89.1336 328° Northwest 309 356 12,400 -1,065 Descending Chicago Center
Mon 10:12:02 AM 40.1197 -89.1953 326° Northwest 306 352 11,400 -1,024 Descending Chicago Center
Mon 10:13:03 AM 40.1975 -89.2564 329° Northwest 280 322 10,300 -1,366 Descending Chicago Center
Mon 10:14:05 AM 40.2547 -89.3061 326° Northwest 256 295 8,600 -1,452 Descending Chicago Center
Mon 10:15:07 AM 40.3125 -89.3511 329° Northwest 244 281 7,300 -1,161 Descending Chicago Center
Mon 10:16:09 AM 40.3694 -89.3994 327° Northwest 244 281 6,200 -919 Descending Chicago Center
Mon 10:17:11 AM 40.4278 -89.4447 329° Northwest 244 281 5,400 -726 Descending Chicago Center
Mon 10:18:13 AM 40.4831 -89.4933 326° Northwest 241 277 4,700 -811 Descending Chicago Center
Mon 10:20:16 AM 40.5939 -89.5778 330° Northwest 205 236 2,900 -876 Descending Chicago Center
Mon 10:21:18 AM 40.6219 -89.6225 310° West 179 206 2,000 -823 Descending Chicago Center
Mon 10:22:20 AM 40.6431 -89.6592 307° West 150 173 1,200 -677 Descending Chicago Center
Mon 10:23:22 AM 40.6653 -89.6981 307° West 135 155 600 -581 Descending Chicago Center
Mon 10:25:00 AM 40.6642 -89.6933 123° Southeast  Level Estimated

Login

Don't have an account? Register now (free) for customized features, flight alerts, and more!